Colfax, North Carolina
Current Conditions -  °F | °C
As of 8:54 AM on Monday 20 Oct 2014 (Local Time) from KGSO Reporting Station
Broken Clouds Broken Clouds  
Wind Chill: 46°   Ceiling: 25000
Heat Index: 49°   Visibility: 10mi
Dew Point: 44°   Wind: 7mph
Humidity: 83%   Direction: 200°SSW
Pressure: 30.14"   Gusts: NA
Location:  36.11°N, 80.01°W
Report Text: KGSO 201254Z 20006KT 10SM BKN250 09/07 A3014 RMK AO2 SLP206 T00940067
Loading
Personal Weather Stations






























Interactive Weather Map
Tropical Storm Tracking
New forecast layout! Learn more

10-Day Weather Forecast

Advertisements
Track Severe Weather on mobile